sensor_id;sensor_type;location;lat;lon;timestamp;pressure;altitude;pressure_sealevel;temperature;humidity
13068;BME280;6600;51.362;6.686;2022-07-29T00:00:09;101126.97;;;20.30;62.28
13068;BME280;6600;51.362;6.686;2022-07-29T00:02:35;101132.44;;;20.30;62.19
13068;BME280;6600;51.362;6.686;2022-07-29T00:05:01;101123.69;;;20.28;62.43
13068;BME280;6600;51.362;6.686;2022-07-29T00:07:26;101126.41;;;20.28;61.99
13068;BME280;6600;51.362;6.686;2022-07-29T00:09:51;101122.56;;;20.24;62.57
13068;BME280;6600;51.362;6.686;2022-07-29T00:12:18;101120.13;;;20.23;62.53
13068;BME280;6600;51.362;6.686;2022-07-29T00:14:43;101117.66;;;20.16;62.47
13068;BME280;6600;51.362;6.686;2022-07-29T00:17:08;101116.56;;;20.17;62.72
13068;BME280;6600;51.362;6.686;2022-07-29T00:19:34;101120.38;;;20.16;62.34
13068;BME280;6600;51.362;6.686;2022-07-29T00:22:00;101110.03;;;20.13;62.59
13068;BME280;6600;51.362;6.686;2022-07-29T00:24:25;101112.47;;;20.14;62.12
13068;BME280;6600;51.362;6.686;2022-07-29T00:26:51;101112.78;;;20.13;62.45
13068;BME280;6600;51.362;6.686;2022-07-29T00:29:17;101105.94;;;20.10;62.17
13068;BME280;6600;51.362;6.686;2022-07-29T00:31:42;101098.84;;;20.04;62.84
13068;BME280;6600;51.362;6.686;2022-07-29T00:34:08;101096.97;;;20.05;62.42
13068;BME280;6600;51.362;6.686;2022-07-29T00:36:53;101083.63;;;20.03;62.99
13068;BME280;6600;51.362;6.686;2022-07-29T00:39:18;101081.72;;;20.04;62.97
13068;BME280;6600;51.362;6.686;2022-07-29T00:41:44;101072.47;;;20.05;62.75
13068;BME280;6600;51.362;6.686;2022-07-29T00:44:09;101069.72;;;20.00;62.98
13068;BME280;6600;51.362;6.686;2022-07-29T00:46:34;101066.47;;;19.98;62.97
13068;BME280;6600;51.362;6.686;2022-07-29T00:49:00;101059.94;;;19.94;63.27
13068;BME280;6600;51.362;6.686;2022-07-29T00:51:26;101049.59;;;19.91;63.16
13068;BME280;6600;51.362;6.686;2022-07-29T00:53:52;101050.69;;;19.90;63.43
13068;BME280;6600;51.362;6.686;2022-07-29T00:56:18;101045.78;;;19.87;63.77
13068;BME280;6600;51.362;6.686;2022-07-29T00:58:46;101048.50;;;19.82;64.26
13068;BME280;6600;51.362;6.686;2022-07-29T01:01:12;101053.94;;;19.82;63.56
13068;BME280;6600;51.362;6.686;2022-07-29T01:03:37;101058.28;;;19.78;64.22
13068;BME280;6600;51.362;6.686;2022-07-29T01:06:03;101048.22;;;19.78;63.60
13068;BME280;6600;51.362;6.686;2022-07-29T01:08:30;101048.50;;;19.82;63.94
13068;BME280;6600;51.362;6.686;2022-07-29T01:10:56;101052.03;;;19.82;63.36
13068;BME280;6600;51.362;6.686;2022-07-29T01:13:22;101055.81;;;19.76;63.67
13068;BME280;6600;51.362;6.686;2022-07-29T01:15:54;101053.63;;;19.68;64.17
13068;BME280;6600;51.362;6.686;2022-07-29T01:18:25;101047.38;;;19.67;63.86
13068;BME280;6600;51.362;6.686;2022-07-29T01:26:33;101044.09;;;19.65;64.30
13068;BME280;6600;51.362;6.686;2022-07-29T01:29:16;101042.72;;;19.58;64.38
13068;BME280;6600;51.362;6.686;2022-07-29T01:31:54;101048.16;;;19.63;64.56
13068;BME280;6600;51.362;6.686;2022-07-29T01:34:35;101046.25;;;19.58;64.23
13068;BME280;6600;51.362;6.686;2022-07-29T01:39:39;101047.59;;;19.56;64.09
13068;BME280;6600;51.362;6.686;2022-07-29T01:42:10;101045.16;;;19.54;64.43
13068;BME280;6600;51.362;6.686;2022-07-29T01:44:49;101033.72;;;19.52;65.19
13068;BME280;6600;51.362;6.686;2022-07-29T01:47:19;101028.28;;;19.52;64.36
13068;BME280;6600;51.362;6.686;2022-07-29T01:49:51;101028.84;;;19.54;65.10
13068;BME280;6600;51.362;6.686;2022-07-29T01:52:42;101029.09;;;19.53;64.76
13068;BME280;6600;51.362;6.686;2022-07-29T01:55:15;101031.28;;;19.51;64.95
13068;BME280;6600;51.362;6.686;2022-07-29T01:57:43;101034.00;;;19.51;65.10
13068;BME280;6600;51.362;6.686;2022-07-29T02:00:10;101032.63;;;19.48;64.65
13068;BME280;6600;51.362;6.686;2022-07-29T02:02:37;101025.03;;;19.50;64.85
13068;BME280;6600;51.362;6.686;2022-07-29T02:05:05;101023.63;;;19.43;64.96
13068;BME280;6600;51.362;6.686;2022-07-29T02:07:33;101018.75;;;19.45;65.01
13068;BME280;6600;51.362;6.686;2022-07-29T02:10:00;101029.91;;;19.43;65.31
13068;BME280;6600;51.362;6.686;2022-07-29T02:12:29;101036.69;;;19.41;65.17
13068;BME280;6600;51.362;6.686;2022-07-29T02:14:59;101049.16;;;19.42;65.34
13068;BME280;6600;51.362;6.686;2022-07-29T02:17:33;101066.81;;;19.39;65.77
13068;BME280;6600;51.362;6.686;2022-07-29T02:20:03;101079.88;;;19.42;66.35
13068;BME280;6600;51.362;6.686;2022-07-29T02:22:31;101088.31;;;19.46;66.31
13068;BME280;6600;51.362;6.686;2022-07-29T02:24:58;101090.19;;;19.40;66.14
13068;BME280;6600;51.362;6.686;2022-07-29T02:27:26;101086.91;;;19.38;66.33
13068;BME280;6600;51.362;6.686;2022-07-29T02:29:53;101079.81;;;19.32;66.63
13068;BME280;6600;51.362;6.686;2022-07-29T02:32:21;101081.13;;;19.20;67.23
13068;BME280;6600;51.362;6.686;2022-07-29T02:34:48;101084.31;;;19.11;67.42
13068;BME280;6600;51.362;6.686;2022-07-29T02:37:15;101086.22;;;19.11;67.69
13068;BME280;6600;51.362;6.686;2022-07-29T02:39:44;101079.66;;;19.02;67.92
13068;BME280;6600;51.362;6.686;2022-07-29T02:42:13;101073.59;;;18.90;68.16
13068;BME280;6600;51.362;6.686;2022-07-29T02:44:39;101069.13;;;18.74;68.45
13068;BME280;6600;51.362;6.686;2022-07-29T02:47:21;101079.44;;;18.72;68.83
13068;BME280;6600;51.362;6.686;2022-07-29T02:49:55;101091.31;;;18.60;69.17
13068;BME280;6600;51.362;6.686;2022-07-29T02:52:30;101084.94;;;18.50;69.86
13068;BME280;6600;51.362;6.686;2022-07-29T02:55:00;101078.66;;;18.44;70.15
13068;BME280;6600;51.362;6.686;2022-07-29T02:57:49;101060.69;;;18.38;70.40
13068;BME280;6600;51.362;6.686;2022-07-29T03:00:16;101056.81;;;18.29;70.77
13068;BME280;6600;51.362;6.686;2022-07-29T03:02:45;101067.59;;;18.24;71.21
13068;BME280;6600;51.362;6.686;2022-07-29T03:05:18;101076.00;;;18.23;71.70
13068;BME280;6600;51.362;6.686;2022-07-29T03:07:54;101074.34;;;18.16;71.66
13068;BME280;6600;51.362;6.686;2022-07-29T03:10:21;101085.66;;;18.13;72.17
13068;BME280;6600;51.362;6.686;2022-07-29T03:12:47;101093.78;;;18.08;72.89
13068;BME280;6600;51.362;6.686;2022-07-29T03:15:13;101096.63;;;17.97;73.40
13068;BME280;6600;51.362;6.686;2022-07-29T03:17:39;101086.59;;;17.97;73.40
13068;BME280;6600;51.362;6.686;2022-07-29T03:20:06;101095.00;;;17.96;73.65
13068;BME280;6600;51.362;6.686;2022-07-29T03:22:32;101104.19;;;17.95;74.30
13068;BME280;6600;51.362;6.686;2022-07-29T03:25:07;101101.72;;;17.93;74.61
13068;BME280;6600;51.362;6.686;2022-07-29T03:27:34;101116.44;;;17.97;74.45
13068;BME280;6600;51.362;6.686;2022-07-29T03:29:59;101129.34;;;17.90;74.90
13068;BME280;6600;51.362;6.686;2022-07-29T03:32:24;101133.91;;;17.85;75.33
13068;BME280;6600;51.362;6.686;2022-07-29T03:34:50;101140.91;;;17.81;75.86
13068;BME280;6600;51.362;6.686;2022-07-29T03:37:15;101149.03;;;17.81;75.76
13068;BME280;6600;51.362;6.686;2022-07-29T03:39:41;101157.69;;;17.78;76.29
13068;BME280;6600;51.362;6.686;2022-07-29T03:42:08;101143.09;;;17.84;76.33
13068;BME280;6600;51.362;6.686;2022-07-29T03:44:36;101161.44;;;17.77;76.51
13068;BME280;6600;51.362;6.686;2022-07-29T03:47:03;101166.88;;;17.77;76.55
13068;BME280;6600;51.362;6.686;2022-07-29T03:49:32;101169.03;;;17.75;76.38
13068;BME280;6600;51.362;6.686;2022-07-29T03:51:59;101169.53;;;17.72;76.72
13068;BME280;6600;51.362;6.686;2022-07-29T03:54:25;101179.22;;;17.67;78.13
13068;BME280;6600;51.362;6.686;2022-07-29T03:56:52;101176.28;;;17.52;82.57
13068;BME280;6600;51.362;6.686;2022-07-29T03:59:19;101169.25;;;17.35;85.20
13068;BME280;6600;51.362;6.686;2022-07-29T04:01:47;101162.22;;;17.17;87.23
13068;BME280;6600;51.362;6.686;2022-07-29T04:04:13;101148.94;;;16.99;90.42
13068;BME280;6600;51.362;6.686;2022-07-29T04:06:43;101130.56;;;16.84;92.34
13068;BME280;6600;51.362;6.686;2022-07-29T04:09:10;101128.94;;;16.66;93.96
13068;BME280;6600;51.362;6.686;2022-07-29T04:11:36;101124.50;;;16.60;95.44
13068;BME280;6600;51.362;6.686;2022-07-29T04:14:03;101116.84;;;16.41;98.19
13068;BME280;6600;51.362;6.686;2022-07-29T04:16:28;101104.59;;;16.22;100.00
13068;BME280;6600;51.362;6.686;2022-07-29T04:18:54;101078.75;;;16.14;99.49
13068;BME280;6600;51.362;6.686;2022-07-29T04:21:19;101060.81;;;16.08;100.00
13068;BME280;6600;51.362;6.686;2022-07-29T04:23:44;101047.91;;;16.10;100.00
13068;BME280;6600;51.362;6.686;2022-07-29T04:26:14;101041.31;;;16.06;100.00
13068;BME280;6600;51.362;6.686;2022-07-29T04:28:39;101027.31;;;16.09;100.00
13068;BME280;6600;51.362;6.686;2022-07-29T04:31:05;101019.53;;;15.96;100.00
13068;BME280;6600;51.362;6.686;2022-07-29T04:33:30;101027.38;;;15.97;100.00
13068;BME280;6600;51.362;6.686;2022-07-29T04:35:56;101040.97;;;15.86;100.00
13068;BME280;6600;51.362;6.686;2022-07-29T04:38:21;101052.22;;;15.83;100.00
13068;BME280;6600;51.362;6.686;2022-07-29T04:40:47;101059.28;;;15.84;100.00
13068;BME280;6600;51.362;6.686;2022-07-29T04:43:12;101070.78;;;15.91;100.00
13068;BME280;6600;51.362;6.686;2022-07-29T04:45:37;101090.25;;;15.93;100.00
13068;BME280;6600;51.362;6.686;2022-07-29T04:48:03;101101.19;;;15.98;100.00
13068;BME280;6600;51.362;6.686;2022-07-29T04:50:29;101091.41;;;15.97;100.00
13068;BME280;6600;51.362;6.686;2022-07-29T04:52:54;101086.59;;;15.99;100.00
13068;BME280;6600;51.362;6.686;2022-07-29T04:55:19;101095.38;;;16.06;100.00
13068;BME280;6600;51.362;6.686;2022-07-29T04:57:45;101091.59;;;16.07;100.00
13068;BME280;6600;51.362;6.686;2022-07-29T05:00:10;101091.72;;;16.12;100.00
13068;BME280;6600;51.362;6.686;2022-07-29T05:02:36;101091.78;;;16.17;100.00
13068;BME280;6600;51.362;6.686;2022-07-29T05:05:01;101092.94;;;16.21;100.00
13068;BME280;6600;51.362;6.686;2022-07-29T05:07:27;101095.75;;;16.26;100.00
13068;BME280;6600;51.362;6.686;2022-07-29T05:09:52;101097.41;;;16.27;100.00
13068;BME280;6600;51.362;6.686;2022-07-29T05:12:18;101091.00;;;16.33;100.00
13068;BME280;6600;51.362;6.686;2022-07-29T05:14:43;101088.31;;;16.33;100.00
13068;BME280;6600;51.362;6.686;2022-07-29T05:17:08;101096.31;;;16.28;100.00
13068;BME280;6600;51.362;6.686;2022-07-29T05:19:34;101089.38;;;16.32;100.00
13068;BME280;6600;51.362;6.686;2022-07-29T05:21:59;101086.09;;;16.30;100.00
13068;BME280;6600;51.362;6.686;2022-07-29T05:24:25;101081.50;;;16.31;100.00
13068;BME280;6600;51.362;6.686;2022-07-29T05:26:50;101074.63;;;16.23;100.00
13068;BME280;6600;51.362;6.686;2022-07-29T05:29:16;101076.41;;;16.34;100.00
13068;BME280;6600;51.362;6.686;2022-07-29T05:31:41;101073.63;;;16.29;100.00
13068;BME280;6600;51.362;6.686;2022-07-29T05:34:06;101080.69;;;16.30;100.00
13068;BME280;6600;51.362;6.686;2022-07-29T05:36:32;101077.50;;;16.33;100.00
13068;BME280;6600;51.362;6.686;2022-07-29T05:38:57;101080.69;;;16.30;100.00
13068;BME280;6600;51.362;6.686;2022-07-29T05:41:22;101072.47;;;16.25;100.00
13068;BME280;6600;51.362;6.686;2022-07-29T05:43:48;101080.03;;;16.23;100.00
13068;BME280;6600;51.362;6.686;2022-07-29T05:46:13;101076.97;;;16.20;100.00
13068;BME280;6600;51.362;6.686;2022-07-29T05:48:41;101072.47;;;16.25;100.00
13068;BME280;6600;51.362;6.686;2022-07-29T05:51:06;101082.13;;;16.21;100.00
13068;BME280;6600;51.362;6.686;2022-07-29T05:53:32;101072.47;;;16.25;100.00
13068;BME280;6600;51.362;6.686;2022-07-29T05:55:57;101080.91;;;16.29;100.00
13068;BME280;6600;51.362;6.686;2022-07-29T05:58:23;101091.00;;;16.33;100.00
13068;BME280;6600;51.362;6.686;2022-07-29T06:00:48;101088.38;;;16.38;100.00
13068;BME280;6600;51.362;6.686;2022-07-29T06:03:14;101084.63;;;16.39;100.00
13068;BME280;6600;51.362;6.686;2022-07-29T06:05:39;101076.00;;;16.42;100.00
13068;BME280;6600;51.362;6.686;2022-07-29T06:08:05;101076.13;;;16.47;100.00
13068;BME280;6600;51.362;6.686;2022-07-29T06:10:36;101072.41;;;16.53;100.00
13068;BME280;6600;51.362;6.686;2022-07-29T06:13:01;101078.59;;;16.65;100.00
13068;BME280;6600;51.362;6.686;2022-07-29T06:15:27;101071.53;;;16.81;100.00
13068;BME280;6600;51.362;6.686;2022-07-29T06:17:52;101082.84;;;16.95;100.00
13068;BME280;6600;51.362;6.686;2022-07-29T06:20:18;101085.78;;;17.10;100.00
13068;BME280;6600;51.362;6.686;2022-07-29T06:22:43;101089.50;;;17.26;100.00
13068;BME280;6600;51.362;6.686;2022-07-29T06:25:09;101095.38;;;17.39;100.00
13068;BME280;6600;51.362;6.686;2022-07-29T06:27:34;101092.22;;;17.47;100.00
13068;BME280;6600;51.362;6.686;2022-07-29T06:29:59;101099.91;;;17.55;100.00
13068;BME280;6600;51.362;6.686;2022-07-29T06:32:26;101106.25;;;17.61;100.00
13068;BME280;6600;51.362;6.686;2022-07-29T06:34:52;101112.50;;;17.61;100.00
13068;BME280;6600;51.362;6.686;2022-07-29T06:37:17;101125.84;;;17.51;100.00
13068;BME280;6600;51.362;6.686;2022-07-29T06:39:42;101137.19;;;17.48;100.00
13068;BME280;6600;51.362;6.686;2022-07-29T06:42:08;101132.78;;;17.42;100.00
13068;BME280;6600;51.362;6.686;2022-07-29T06:44:33;101146.28;;;17.37;100.00
13068;BME280;6600;51.362;6.686;2022-07-29T06:47:00;101153.50;;;17.32;100.00
13068;BME280;6600;51.362;6.686;2022-07-29T06:49:25;101154.00;;;17.29;100.00
13068;BME280;6600;51.362;6.686;2022-07-29T06:51:52;101158.75;;;17.22;100.00
13068;BME280;6600;51.362;6.686;2022-07-29T06:54:17;101166.00;;;17.16;100.00
13068;BME280;6600;51.362;6.686;2022-07-29T06:56:43;101171.09;;;17.12;100.00
13068;BME280;6600;51.362;6.686;2022-07-29T06:59:09;101178.94;;;17.14;100.00
13068;BME280;6600;51.362;6.686;2022-07-29T07:01:37;101169.44;;;17.11;100.00
13068;BME280;6600;51.362;6.686;2022-07-29T07:04:02;101172.31;;;17.05;100.00
13068;BME280;6600;51.362;6.686;2022-07-29T07:06:28;101177.84;;;17.10;100.00
13068;BME280;6600;51.362;6.686;2022-07-29T07:08:53;101183.81;;;17.12;100.00
13068;BME280;6600;51.362;6.686;2022-07-29T07:11:19;101186.03;;;17.15;100.00
13068;BME280;6600;51.362;6.686;2022-07-29T07:13:44;101190.13;;;17.17;100.00
13068;BME280;6600;51.362;6.686;2022-07-29T07:16:10;101196.34;;;17.18;100.00
13068;BME280;6600;51.362;6.686;2022-07-29T07:18:35;101202.91;;;17.22;100.00
13068;BME280;6600;51.362;6.686;2022-07-29T07:21:00;101192.66;;;17.24;100.00
13068;BME280;6600;51.362;6.686;2022-07-29T07:23:26;101192.09;;;17.22;100.00
13068;BME280;6600;51.362;6.686;2022-07-29T07:25:51;101192.59;;;17.19;100.00
13068;BME280;6600;51.362;6.686;2022-07-29T07:28:17;101191.44;;;17.15;100.00
13068;BME280;6600;51.362;6.686;2022-07-29T07:30:42;101192.44;;;17.09;100.00
13068;BME280;6600;51.362;6.686;2022-07-29T07:33:08;101187.50;;;17.06;100.00
13068;BME280;6600;51.362;6.686;2022-07-29T07:35:34;101189.13;;;17.07;100.00
13068;BME280;6600;51.362;6.686;2022-07-29T07:37:59;101180.28;;;17.11;100.00
13068;BME280;6600;51.362;6.686;2022-07-29T07:40:25;101176.09;;;17.04;100.00
13068;BME280;6600;51.362;6.686;2022-07-29T07:42:50;101174.03;;;16.94;100.00
13068;BME280;6600;51.362;6.686;2022-07-29T07:45:16;101169.94;;;16.92;100.00
13068;BME280;6600;51.362;6.686;2022-07-29T07:47:42;101163.38;;;16.88;100.00
13068;BME280;6600;51.362;6.686;2022-07-29T07:50:09;101167.75;;;16.89;100.00
13068;BME280;6600;51.362;6.686;2022-07-29T07:52:46;101166.59;;;16.85;100.00
13068;BME280;6600;51.362;6.686;2022-07-29T07:55:11;101164.44;;;16.87;100.00
13068;BME280;6600;51.362;6.686;2022-07-29T07:57:36;101153.13;;;16.90;100.00
13068;BME280;6600;51.362;6.686;2022-07-29T08:00:03;101150.41;;;16.90;100.00
13068;BME280;6600;51.362;6.686;2022-07-29T08:02:29;101146.31;;;16.87;100.00
13068;BME280;6600;51.362;6.686;2022-07-29T08:04:54;101153.06;;;16.85;100.00
13068;BME280;6600;51.362;6.686;2022-07-29T08:07:19;101156.91;;;16.89;100.00
13068;BME280;6600;51.362;6.686;2022-07-29T08:09:45;101162.88;;;16.91;100.00
13068;BME280;6600;51.362;6.686;2022-07-29T08:12:10;101166.66;;;16.90;100.00
13068;BME280;6600;51.362;6.686;2022-07-29T08:14:35;101150.25;;;16.96;100.00
13068;BME280;6600;51.362;6.686;2022-07-29T08:17:01;101160.84;;;16.98;100.00
13068;BME280;6600;51.362;6.686;2022-07-29T08:19:26;101159.28;;;17.02;100.00
13068;BME280;6600;51.362;6.686;2022-07-29T08:21:52;101155.97;;;17.00;100.00
13068;BME280;6600;51.362;6.686;2022-07-29T08:24:18;101159.34;;;17.07;100.00
13068;BME280;6600;51.362;6.686;2022-07-29T08:27:02;101165.69;;;17.12;100.00
13068;BME280;6600;51.362;6.686;2022-07-29T08:29:28;101169.28;;;17.18;100.00
13068;BME280;6600;51.362;6.686;2022-07-29T08:31:53;101172.22;;;17.33;100.00
13068;BME280;6600;51.362;6.686;2022-07-29T08:34:18;101174.94;;;17.33;100.00
13068;BME280;6600;51.362;6.686;2022-07-29T08:36:44;101176.53;;;17.51;100.00
13068;BME280;6600;51.362;6.686;2022-07-29T08:39:09;101176.75;;;17.66;100.00
13068;BME280;6600;51.362;6.686;2022-07-29T08:41:35;101176.16;;;17.81;100.00
13068;BME280;6600;51.362;6.686;2022-07-29T08:44:00;101174.69;;;17.95;100.00
13068;BME280;6600;51.362;6.686;2022-07-29T08:46:25;101172.81;;;17.95;100.00
13068;BME280;6600;51.362;6.686;2022-07-29T08:48:51;101171.59;;;18.08;100.00
13068;BME280;6600;51.362;6.686;2022-07-29T08:51:18;101171.69;;;18.18;100.00
13068;BME280;6600;51.362;6.686;2022-07-29T08:53:45;101172.78;;;18.17;100.00
13068;BME280;6600;51.362;6.686;2022-07-29T08:56:13;101174.72;;;18.22;100.00
13068;BME280;6600;51.362;6.686;2022-07-29T08:58:39;101180.16;;;18.22;100.00
13068;BME280;6600;51.362;6.686;2022-07-29T09:01:06;101174.00;;;18.31;100.00
13068;BME280;6600;51.362;6.686;2022-07-29T09:03:33;101180.63;;;18.40;100.00
13068;BME280;6600;51.362;6.686;2022-07-29T09:06:00;101175.75;;;18.42;100.00
13068;BME280;6600;51.362;6.686;2022-07-29T09:08:26;101173.75;;;18.54;99.94
13068;BME280;6600;51.362;6.686;2022-07-29T09:10:52;101171.34;;;18.58;99.46
13068;BME280;6600;51.362;6.686;2022-07-29T09:13:18;101172.81;;;18.71;100.00
13068;BME280;6600;51.362;6.686;2022-07-29T09:15:44;101170.91;;;18.71;100.00
13068;BME280;6600;51.362;6.686;2022-07-29T09:18:10;101167.91;;;18.67;99.67
13068;BME280;6600;51.362;6.686;2022-07-29T09:20:35;101154.34;;;18.73;100.00
13068;BME280;6600;51.362;6.686;2022-07-29T09:23:19;101157.13;;;18.78;100.00
13068;BME280;6600;51.362;6.686;2022-07-29T09:25:45;101153.66;;;18.82;100.00
13068;BME280;6600;51.362;6.686;2022-07-29T09:28:15;101158.94;;;18.99;100.00
13068;BME280;6600;51.362;6.686;2022-07-29T09:30:57;101164.31;;;18.94;99.27
13068;BME280;6600;51.362;6.686;2022-07-29T09:33:32;101160.56;;;19.00;98.12
13068;BME280;6600;51.362;6.686;2022-07-29T09:36:09;101164.63;;;18.97;97.77
13068;BME280;6600;51.362;6.686;2022-07-29T09:38:35;101170.81;;;18.93;97.32
13068;BME280;6600;51.362;6.686;2022-07-29T09:41:03;101167.31;;;18.97;98.00
13068;BME280;6600;51.362;6.686;2022-07-29T09:43:29;101162.13;;;18.91;95.76
13068;BME280;6600;51.362;6.686;2022-07-29T09:45:54;101153.44;;;18.94;97.38
13068;BME280;6600;51.362;6.686;2022-07-29T09:48:24;101155.13;;;19.00;97.05
13068;BME280;6600;51.362;6.686;2022-07-29T09:50:51;101155.69;;;19.02;97.14
13068;BME280;6600;51.362;6.686;2022-07-29T09:53:46;101153.50;;;18.99;96.16
13068;BME280;6600;51.362;6.686;2022-07-29T09:56:12;101154.31;;;18.99;97.34
13068;BME280;6600;51.362;6.686;2022-07-29T09:58:39;101157.34;;;19.08;98.65
13068;BME280;6600;51.362;6.686;2022-07-29T10:01:04;101160.63;;;19.10;97.08
13068;BME280;6600;51.362;6.686;2022-07-29T10:03:30;101166.75;;;19.27;98.53
13068;BME280;6600;51.362;6.686;2022-07-29T10:06:05;101162.16;;;19.38;96.64
13068;BME280;6600;51.362;6.686;2022-07-29T10:08:31;101171.91;;;19.76;96.65
13068;BME280;6600;51.362;6.686;2022-07-29T10:11:09;101168.78;;;20.09;93.82
13068;BME280;6600;51.362;6.686;2022-07-29T10:13:35;101175.97;;;20.35;93.19
13068;BME280;6600;51.362;6.686;2022-07-29T10:16:00;101175.69;;;20.32;90.90
13068;BME280;6600;51.362;6.686;2022-07-29T10:18:26;101171.09;;;20.47;90.38
13068;BME280;6600;51.362;6.686;2022-07-29T10:20:52;101177.38;;;20.58;89.67
13068;BME280;6600;51.362;6.686;2022-07-29T10:23:18;101179.53;;;20.56;88.09
13068;BME280;6600;51.362;6.686;2022-07-29T10:25:45;101185.00;;;20.71;85.89
13068;BME280;6600;51.362;6.686;2022-07-29T10:28:10;101185.28;;;20.95;86.48
13068;BME280;6600;51.362;6.686;2022-07-29T10:30:37;101186.38;;;21.09;85.96
13068;BME280;6600;51.362;6.686;2022-07-29T10:33:30;101182.25;;;21.47;84.23
13068;BME280;6600;51.362;6.686;2022-07-29T10:39:05;101181.38;;;21.72;81.06
13068;BME280;6600;51.362;6.686;2022-07-29T10:41:59;101190.44;;;22.21;79.36
13068;BME280;6600;51.362;6.686;2022-07-29T10:44:27;101192.56;;;22.34;77.70
13068;BME280;6600;51.362;6.686;2022-07-29T10:46:53;101187.06;;;22.44;78.54
13068;BME280;6600;51.362;6.686;2022-07-29T10:49:21;101194.69;;;22.47;78.50
13068;BME280;6600;51.362;6.686;2022-07-29T10:54:16;101180.28;;;22.76;79.85
13068;BME280;6600;51.362;6.686;2022-07-29T10:56:41;101179.97;;;22.43;78.71
13068;BME280;6600;51.362;6.686;2022-07-29T11:01:52;101193.56;;;22.48;76.10
13068;BME280;6600;51.362;6.686;2022-07-29T11:07:09;101191.97;;;22.42;78.93
13068;BME280;6600;51.362;6.686;2022-07-29T11:09:35;101198.06;;;22.29;79.18
13068;BME280;6600;51.362;6.686;2022-07-29T11:12:00;101192.19;;;22.02;79.07
13068;BME280;6600;51.362;6.686;2022-07-29T11:17:23;101195.44;;;22.04;80.53
13068;BME280;6600;51.362;6.686;2022-07-29T11:19:48;101187.66;;;22.36;79.38
13068;BME280;6600;51.362;6.686;2022-07-29T11:22:34;101189.97;;;22.58;79.13
13068;BME280;6600;51.362;6.686;2022-07-29T11:25:14;101185.72;;;22.81;80.22
13068;BME280;6600;51.362;6.686;2022-07-29T11:27:39;101190.25;;;22.51;76.37
13068;BME280;6600;51.362;6.686;2022-07-29T11:30:05;101196.41;;;22.28;76.67
13068;BME280;6600;51.362;6.686;2022-07-29T11:32:40;101191.00;;;22.18;76.43
13068;BME280;6600;51.362;6.686;2022-07-29T11:37:42;101190.75;;;22.14;77.90
13068;BME280;6600;51.362;6.686;2022-07-29T11:40:10;101188.91;;;22.49;76.88
13068;BME280;6600;51.362;6.686;2022-07-29T11:42:37;101194.59;;;22.96;73.88
13068;BME280;6600;51.362;6.686;2022-07-29T11:45:05;101184.41;;;23.07;73.23
13068;BME280;6600;51.362;6.686;2022-07-29T11:47:46;101192.03;;;23.10;73.47
13068;BME280;6600;51.362;6.686;2022-07-29T11:50:15;101188.06;;;23.26;72.24
13068;BME280;6600;51.362;6.686;2022-07-29T11:52:45;101186.22;;;23.50;72.00
13068;BME280;6600;51.362;6.686;2022-07-29T11:55:19;101187.31;;;23.49;72.22
13068;BME280;6600;51.362;6.686;2022-07-29T11:57:56;101190.03;;;23.49;74.11
13068;BME280;6600;51.362;6.686;2022-07-29T12:03:00;101188.09;;;23.21;71.70
13068;BME280;6600;51.362;6.686;2022-07-29T12:08:04;101187.13;;;23.07;74.04
13068;BME280;6600;51.362;6.686;2022-07-29T12:10:30;101187.31;;;22.87;74.09
13068;BME280;6600;51.362;6.686;2022-07-29T12:12:56;101188.91;;;22.93;74.38
13068;BME280;6600;51.362;6.686;2022-07-29T12:15:21;101183.88;;;23.05;73.07
13068;BME280;6600;51.362;6.686;2022-07-29T12:17:49;101191.09;;;22.96;73.15
13068;BME280;6600;51.362;6.686;2022-07-29T12:20:25;101191.09;;;22.91;71.90
13068;BME280;6600;51.362;6.686;2022-07-29T12:22:51;101190.91;;;22.82;74.25
13068;BME280;6600;51.362;6.686;2022-07-29T12:25:19;101192.59;;;23.07;73.64
13068;BME280;6600;51.362;6.686;2022-07-29T12:27:44;101193.19;;;23.04;73.30
13068;BME280;6600;51.362;6.686;2022-07-29T12:30:12;101188.59;;;22.99;71.17
13068;BME280;6600;51.362;6.686;2022-07-29T12:32:40;101188.03;;;22.97;72.97
13068;BME280;6600;51.362;6.686;2022-07-29T12:35:09;101188.88;;;22.98;72.05
13068;BME280;6600;51.362;6.686;2022-07-29T12:37:38;101191.59;;;22.98;71.57
13068;BME280;6600;51.362;6.686;2022-07-29T12:40:05;101191.09;;;22.91;71.00
13068;BME280;6600;51.362;6.686;2022-07-29T12:42:31;101187.69;;;23.09;71.13
13068;BME280;6600;51.362;6.686;2022-07-29T12:44:56;101188.69;;;23.18;71.68
13068;BME280;6600;51.362;6.686;2022-07-29T12:47:21;101190.00;;;23.21;71.63
13068;BME280;6600;51.362;6.686;2022-07-29T12:49:48;101187.28;;;23.21;70.82
13068;BME280;6600;51.362;6.686;2022-07-29T12:52:31;101188.00;;;23.31;70.23
13068;BME280;6600;51.362;6.686;2022-07-29T12:54:57;101184.78;;;23.24;68.81
13068;BME280;6600;51.362;6.686;2022-07-29T12:57:23;101185.47;;;23.40;70.47
13068;BME280;6600;51.362;6.686;2022-07-29T13:00:22;101180.81;;;23.40;70.54
13068;BME280;6600;51.362;6.686;2022-07-29T13:02:58;101185.38;;;23.50;70.37
13068;BME280;6600;51.362;6.686;2022-07-29T13:05:39;101181.59;;;23.70;68.46
13068;BME280;6600;51.362;6.686;2022-07-29T13:08:13;101182.72;;;24.11;69.04
13068;BME280;6600;51.362;6.686;2022-07-29T13:10:39;101185.00;;;24.04;67.79
13068;BME280;6600;51.362;6.686;2022-07-29T13:13:12;101182.25;;;24.46;67.04
13068;BME280;6600;51.362;6.686;2022-07-29T13:15:40;101183.97;;;24.42;63.88
13068;BME280;6600;51.362;6.686;2022-07-29T13:18:26;101191.22;;;24.71;65.51
13068;BME280;6600;51.362;6.686;2022-07-29T13:20:52;101194.88;;;24.80;65.41
13068;BME280;6600;51.362;6.686;2022-07-29T13:23:17;101190.25;;;24.61;64.74
13068;BME280;6600;51.362;6.686;2022-07-29T13:25:42;101192.91;;;24.67;64.86
13068;BME280;6600;51.362;6.686;2022-07-29T13:28:08;101193.50;;;24.45;65.22